sensor_id;sensor_type;location;lat;lon;timestamp;P1;durP1;ratioP1;P2;durP2;ratioP2
23228;SDS011;11783;50.350;6.576;2022-12-10T00:01:50;36.25;;;19.42;;
23228;SDS011;11783;50.350;6.576;2022-12-10T00:04:17;37.60;;;19.00;;
23228;SDS011;11783;50.350;6.576;2022-12-10T00:06:46;32.72;;;17.67;;
23228;SDS011;11783;50.350;6.576;2022-12-10T00:09:14;38.38;;;19.50;;
23228;SDS011;11783;50.350;6.576;2022-12-10T00:11:43;42.10;;;20.90;;
23228;SDS011;11783;50.350;6.576;2022-12-10T00:14:10;37.00;;;19.73;;
23228;SDS011;11783;50.350;6.576;2022-12-10T00:16:37;43.05;;;20.42;;
23228;SDS011;11783;50.350;6.576;2022-12-10T00:19:03;35.78;;;19.55;;
23228;SDS011;11783;50.350;6.576;2022-12-10T00:21:30;44.08;;;20.25;;
23228;SDS011;11783;50.350;6.576;2022-12-10T00:24:00;36.92;;;19.73;;
23228;SDS011;11783;50.350;6.576;2022-12-10T00:26:28;38.35;;;19.67;;
23228;SDS011;11783;50.350;6.576;2022-12-10T00:28:56;40.65;;;19.88;;
23228;SDS011;11783;50.350;6.576;2022-12-10T00:31:31;37.58;;;20.02;;
23228;SDS011;11783;50.350;6.576;2022-12-10T00:34:03;39.20;;;20.38;;
23228;SDS011;11783;50.350;6.576;2022-12-10T00:36:33;29.83;;;14.30;;
23228;SDS011;11783;50.350;6.576;2022-12-10T00:39:03;40.40;;;21.42;;
23228;SDS011;11783;50.350;6.576;2022-12-10T00:41:29;37.25;;;19.88;;
23228;SDS011;11783;50.350;6.576;2022-12-10T00:43:56;37.50;;;20.73;;
23228;SDS011;11783;50.350;6.576;2022-12-10T00:46:22;37.90;;;19.25;;
23228;SDS011;11783;50.350;6.576;2022-12-10T00:48:48;38.20;;;20.45;;
23228;SDS011;11783;50.350;6.576;2022-12-10T00:51:15;37.72;;;19.38;;
23228;SDS011;11783;50.350;6.576;2022-12-10T00:56:12;39.92;;;19.92;;
23228;SDS011;11783;50.350;6.576;2022-12-10T00:58:40;38.65;;;20.48;;
23228;SDS011;11783;50.350;6.576;2022-12-10T01:01:20;39.60;;;19.98;;
23228;SDS011;11783;50.350;6.576;2022-12-10T01:03:59;35.80;;;19.02;;
23228;SDS011;11783;50.350;6.576;2022-12-10T01:06:32;34.33;;;18.58;;
23228;SDS011;11783;50.350;6.576;2022-12-10T01:09:01;39.30;;;20.67;;
23228;SDS011;11783;50.350;6.576;2022-12-10T01:11:30;40.25;;;20.80;;
23228;SDS011;11783;50.350;6.576;2022-12-10T01:13:57;36.40;;;19.23;;
23228;SDS011;11783;50.350;6.576;2022-12-10T01:16:23;36.00;;;19.77;;
23228;SDS011;11783;50.350;6.576;2022-12-10T01:18:51;39.65;;;20.98;;
23228;SDS011;11783;50.350;6.576;2022-12-10T01:21:19;32.55;;;16.10;;
23228;SDS011;11783;50.350;6.576;2022-12-10T01:23:47;35.80;;;19.00;;
23228;SDS011;11783;50.350;6.576;2022-12-10T01:26:15;42.03;;;21.00;;
23228;SDS011;11783;50.350;6.576;2022-12-10T01:28:42;38.78;;;20.48;;
23228;SDS011;11783;50.350;6.576;2022-12-10T01:31:18;38.78;;;20.88;;
23228;SDS011;11783;50.350;6.576;2022-12-10T01:33:46;38.20;;;21.23;;
23228;SDS011;11783;50.350;6.576;2022-12-10T01:36:13;34.88;;;18.95;;
23228;SDS011;11783;50.350;6.576;2022-12-10T01:38:43;36.92;;;18.88;;
23228;SDS011;11783;50.350;6.576;2022-12-10T01:41:16;37.45;;;19.10;;
23228;SDS011;11783;50.350;6.576;2022-12-10T01:46:18;38.22;;;20.63;;
23228;SDS011;11783;50.350;6.576;2022-12-10T01:48:44;37.20;;;19.75;;
23228;SDS011;11783;50.350;6.576;2022-12-10T01:51:10;38.65;;;19.08;;
23228;SDS011;11783;50.350;6.576;2022-12-10T01:53:37;39.53;;;20.20;;
23228;SDS011;11783;50.350;6.576;2022-12-10T01:56:03;33.65;;;17.98;;
23228;SDS011;11783;50.350;6.576;2022-12-10T01:58:28;36.75;;;18.42;;
23228;SDS011;11783;50.350;6.576;2022-12-10T02:01:05;35.72;;;18.55;;
23228;SDS011;11783;50.350;6.576;2022-12-10T02:09:01;31.13;;;16.45;;
23228;SDS011;11783;50.350;6.576;2022-12-10T02:11:40;28.50;;;16.02;;
23228;SDS011;11783;50.350;6.576;2022-12-10T02:14:23;28.85;;;14.95;;
23228;SDS011;11783;50.350;6.576;2022-12-10T02:17:08;25.95;;;14.10;;
23228;SDS011;11783;50.350;6.576;2022-12-10T02:19:44;25.00;;;14.43;;
23228;SDS011;11783;50.350;6.576;2022-12-10T02:22:22;25.67;;;13.60;;
23228;SDS011;11783;50.350;6.576;2022-12-10T02:24:51;26.58;;;13.63;;
23228;SDS011;11783;50.350;6.576;2022-12-10T02:27:24;25.55;;;14.10;;
23228;SDS011;11783;50.350;6.576;2022-12-10T02:29:56;24.80;;;13.52;;
23228;SDS011;11783;50.350;6.576;2022-12-10T02:32:25;23.52;;;13.05;;
23228;SDS011;11783;50.350;6.576;2022-12-10T02:34:57;24.58;;;12.75;;
23228;SDS011;11783;50.350;6.576;2022-12-10T02:37:27;24.50;;;13.13;;
23228;SDS011;11783;50.350;6.576;2022-12-10T02:39:57;25.92;;;13.35;;
23228;SDS011;11783;50.350;6.576;2022-12-10T02:42:27;17.98;;;9.52;;
23228;SDS011;11783;50.350;6.576;2022-12-10T02:44:55;23.50;;;11.95;;
23228;SDS011;11783;50.350;6.576;2022-12-10T02:47:22;26.25;;;13.68;;
23228;SDS011;11783;50.350;6.576;2022-12-10T02:49:49;22.60;;;12.30;;
23228;SDS011;11783;50.350;6.576;2022-12-10T02:52:18;23.83;;;12.88;;
23228;SDS011;11783;50.350;6.576;2022-12-10T02:54:45;26.42;;;13.15;;
23228;SDS011;11783;50.350;6.576;2022-12-10T02:57:27;25.85;;;12.82;;
23228;SDS011;11783;50.350;6.576;2022-12-10T03:00:21;22.67;;;13.05;;
23228;SDS011;11783;50.350;6.576;2022-12-10T03:05:29;25.63;;;13.40;;
23228;SDS011;11783;50.350;6.576;2022-12-10T03:10:41;26.65;;;14.00;;
23228;SDS011;11783;50.350;6.576;2022-12-10T03:13:20;26.40;;;13.00;;
23228;SDS011;11783;50.350;6.576;2022-12-10T03:15:49;28.15;;;14.60;;
23228;SDS011;11783;50.350;6.576;2022-12-10T03:18:19;24.40;;;13.63;;
23228;SDS011;11783;50.350;6.576;2022-12-10T03:20:49;26.35;;;14.32;;
23228;SDS011;11783;50.350;6.576;2022-12-10T03:23:17;26.75;;;14.48;;
23228;SDS011;11783;50.350;6.576;2022-12-10T03:25:44;26.95;;;13.70;;
23228;SDS011;11783;50.350;6.576;2022-12-10T03:28:13;29.13;;;15.57;;
23228;SDS011;11783;50.350;6.576;2022-12-10T03:30:39;27.75;;;15.25;;
23228;SDS011;11783;50.350;6.576;2022-12-10T03:33:07;28.63;;;15.52;;
23228;SDS011;11783;50.350;6.576;2022-12-10T03:35:33;33.40;;;16.00;;
23228;SDS011;11783;50.350;6.576;2022-12-10T03:37:59;34.28;;;18.00;;
23228;SDS011;11783;50.350;6.576;2022-12-10T03:40:26;32.85;;;17.48;;
23228;SDS011;11783;50.350;6.576;2022-12-10T03:42:51;33.67;;;18.08;;
23228;SDS011;11783;50.350;6.576;2022-12-10T03:45:16;31.38;;;16.40;;
23228;SDS011;11783;50.350;6.576;2022-12-10T03:47:42;36.83;;;18.92;;
23228;SDS011;11783;50.350;6.576;2022-12-10T03:50:08;35.15;;;18.42;;
23228;SDS011;11783;50.350;6.576;2022-12-10T03:52:34;36.75;;;18.70;;
23228;SDS011;11783;50.350;6.576;2022-12-10T03:55:00;38.53;;;19.83;;
23228;SDS011;11783;50.350;6.576;2022-12-10T03:57:26;35.25;;;19.40;;
23228;SDS011;11783;50.350;6.576;2022-12-10T03:59:51;42.47;;;20.83;;
23228;SDS011;11783;50.350;6.576;2022-12-10T04:02:17;36.88;;;18.63;;
23228;SDS011;11783;50.350;6.576;2022-12-10T04:04:42;39.83;;;20.30;;
23228;SDS011;11783;50.350;6.576;2022-12-10T04:07:07;38.97;;;19.92;;
23228;SDS011;11783;50.350;6.576;2022-12-10T04:09:33;41.38;;;20.23;;
23228;SDS011;11783;50.350;6.576;2022-12-10T04:11:58;41.78;;;20.38;;
23228;SDS011;11783;50.350;6.576;2022-12-10T04:14:24;38.50;;;20.48;;
23228;SDS011;11783;50.350;6.576;2022-12-10T04:17:10;37.22;;;19.30;;
23228;SDS011;11783;50.350;6.576;2022-12-10T04:19:35;40.33;;;21.83;;
23228;SDS011;11783;50.350;6.576;2022-12-10T04:22:01;41.67;;;20.73;;
23228;SDS011;11783;50.350;6.576;2022-12-10T04:24:45;44.70;;;22.58;;
23228;SDS011;11783;50.350;6.576;2022-12-10T04:27:30;42.90;;;21.40;;
23228;SDS011;11783;50.350;6.576;2022-12-10T04:29:58;44.40;;;21.77;;
23228;SDS011;11783;50.350;6.576;2022-12-10T04:32:24;37.00;;;20.63;;
23228;SDS011;11783;50.350;6.576;2022-12-10T04:34:51;42.63;;;21.98;;
23228;SDS011;11783;50.350;6.576;2022-12-10T04:37:17;37.72;;;20.10;;
23228;SDS011;11783;50.350;6.576;2022-12-10T04:39:44;40.25;;;20.40;;
23228;SDS011;11783;50.350;6.576;2022-12-10T04:42:09;41.80;;;22.02;;
23228;SDS011;11783;50.350;6.576;2022-12-10T04:44:35;34.13;;;18.60;;
23228;SDS011;11783;50.350;6.576;2022-12-10T04:47:00;38.90;;;20.02;;
23228;SDS011;11783;50.350;6.576;2022-12-10T04:49:26;36.25;;;19.13;;
23228;SDS011;11783;50.350;6.576;2022-12-10T04:51:51;42.53;;;21.58;;
23228;SDS011;11783;50.350;6.576;2022-12-10T04:54:17;39.53;;;20.90;;
23228;SDS011;11783;50.350;6.576;2022-12-10T04:56:43;37.33;;;19.98;;
23228;SDS011;11783;50.350;6.576;2022-12-10T04:59:09;37.88;;;20.98;;
23228;SDS011;11783;50.350;6.576;2022-12-10T05:01:35;40.72;;;20.75;;
23228;SDS011;11783;50.350;6.576;2022-12-10T05:04:01;36.58;;;19.95;;
23228;SDS011;11783;50.350;6.576;2022-12-10T05:06:29;38.78;;;20.65;;
23228;SDS011;11783;50.350;6.576;2022-12-10T05:08:55;37.97;;;19.70;;
23228;SDS011;11783;50.350;6.576;2022-12-10T05:11:22;33.60;;;18.15;;
23228;SDS011;11783;50.350;6.576;2022-12-10T05:13:49;32.95;;;17.30;;
23228;SDS011;11783;50.350;6.576;2022-12-10T05:16:15;37.10;;;20.25;;
23228;SDS011;11783;50.350;6.576;2022-12-10T05:18:43;38.70;;;20.52;;
23228;SDS011;11783;50.350;6.576;2022-12-10T05:21:12;35.47;;;18.92;;
23228;SDS011;11783;50.350;6.576;2022-12-10T05:23:41;36.17;;;18.60;;
23228;SDS011;11783;50.350;6.576;2022-12-10T05:26:09;36.80;;;18.80;;
23228;SDS011;11783;50.350;6.576;2022-12-10T05:28:39;38.70;;;19.77;;
23228;SDS011;11783;50.350;6.576;2022-12-10T05:33:38;36.42;;;17.80;;
23228;SDS011;11783;50.350;6.576;2022-12-10T05:36:03;34.85;;;17.77;;
23228;SDS011;11783;50.350;6.576;2022-12-10T05:38:30;37.10;;;19.05;;
23228;SDS011;11783;50.350;6.576;2022-12-10T05:41:03;34.33;;;18.50;;
23228;SDS011;11783;50.350;6.576;2022-12-10T05:43:29;36.63;;;18.48;;
23228;SDS011;11783;50.350;6.576;2022-12-10T05:45:58;34.38;;;18.38;;
23228;SDS011;11783;50.350;6.576;2022-12-10T05:48:25;35.10;;;18.52;;
23228;SDS011;11783;50.350;6.576;2022-12-10T05:50:50;37.83;;;18.52;;
23228;SDS011;11783;50.350;6.576;2022-12-10T05:53:15;34.65;;;18.15;;
23228;SDS011;11783;50.350;6.576;2022-12-10T05:55:43;31.88;;;17.52;;
23228;SDS011;11783;50.350;6.576;2022-12-10T05:58:08;41.42;;;18.75;;
23228;SDS011;11783;50.350;6.576;2022-12-10T06:00:33;36.47;;;18.70;;
23228;SDS011;11783;50.350;6.576;2022-12-10T06:02:59;35.45;;;17.73;;
23228;SDS011;11783;50.350;6.576;2022-12-10T06:05:24;32.35;;;17.25;;
23228;SDS011;11783;50.350;6.576;2022-12-10T06:07:49;32.67;;;17.92;;
23228;SDS011;11783;50.350;6.576;2022-12-10T06:10:14;31.75;;;16.33;;
23228;SDS011;11783;50.350;6.576;2022-12-10T06:12:40;31.90;;;15.90;;
23228;SDS011;11783;50.350;6.576;2022-12-10T06:15:05;34.65;;;16.83;;
23228;SDS011;11783;50.350;6.576;2022-12-10T06:17:31;33.17;;;17.05;;
23228;SDS011;11783;50.350;6.576;2022-12-10T06:19:57;29.45;;;16.08;;
23228;SDS011;11783;50.350;6.576;2022-12-10T06:22:22;32.78;;;17.25;;
23228;SDS011;11783;50.350;6.576;2022-12-10T06:24:48;33.53;;;17.67;;
23228;SDS011;11783;50.350;6.576;2022-12-10T06:27:13;36.47;;;18.48;;
23228;SDS011;11783;50.350;6.576;2022-12-10T06:29:39;31.15;;;17.23;;
23228;SDS011;11783;50.350;6.576;2022-12-10T06:32:04;34.70;;;17.67;;
23228;SDS011;11783;50.350;6.576;2022-12-10T06:34:30;38.40;;;19.75;;
23228;SDS011;11783;50.350;6.576;2022-12-10T06:36:55;39.33;;;19.05;;
23228;SDS011;11783;50.350;6.576;2022-12-10T06:39:20;35.25;;;18.00;;
23228;SDS011;11783;50.350;6.576;2022-12-10T06:41:45;40.50;;;19.60;;
23228;SDS011;11783;50.350;6.576;2022-12-10T06:44:11;33.95;;;17.55;;
23228;SDS011;11783;50.350;6.576;2022-12-10T06:46:37;35.33;;;18.02;;
23228;SDS011;11783;50.350;6.576;2022-12-10T06:49:03;33.60;;;16.88;;
23228;SDS011;11783;50.350;6.576;2022-12-10T06:51:29;29.88;;;15.88;;
23228;SDS011;11783;50.350;6.576;2022-12-10T06:53:54;30.90;;;15.68;;
23228;SDS011;11783;50.350;6.576;2022-12-10T06:56:20;32.40;;;16.63;;
23228;SDS011;11783;50.350;6.576;2022-12-10T06:58:46;36.15;;;17.27;;
23228;SDS011;11783;50.350;6.576;2022-12-10T07:01:15;33.85;;;18.23;;
23228;SDS011;11783;50.350;6.576;2022-12-10T07:03:49;34.22;;;17.17;;
23228;SDS011;11783;50.350;6.576;2022-12-10T07:06:16;25.40;;;13.25;;
23228;SDS011;11783;50.350;6.576;2022-12-10T07:08:42;34.75;;;17.58;;
23228;SDS011;11783;50.350;6.576;2022-12-10T07:11:08;32.88;;;17.25;;
23228;SDS011;11783;50.350;6.576;2022-12-10T07:13:36;31.98;;;17.45;;
23228;SDS011;11783;50.350;6.576;2022-12-10T07:16:02;36.50;;;18.05;;
23228;SDS011;11783;50.350;6.576;2022-12-10T07:18:28;36.47;;;18.88;;
23228;SDS011;11783;50.350;6.576;2022-12-10T07:20:53;33.35;;;17.85;;
23228;SDS011;11783;50.350;6.576;2022-12-10T07:23:19;32.70;;;17.33;;
23228;SDS011;11783;50.350;6.576;2022-12-10T07:25:45;33.65;;;16.85;;
23228;SDS011;11783;50.350;6.576;2022-12-10T07:28:11;28.85;;;15.48;;
23228;SDS011;11783;50.350;6.576;2022-12-10T07:30:36;32.92;;;17.23;;
23228;SDS011;11783;50.350;6.576;2022-12-10T07:33:02;34.70;;;18.50;;
23228;SDS011;11783;50.350;6.576;2022-12-10T07:35:27;35.17;;;17.35;;
23228;SDS011;11783;50.350;6.576;2022-12-10T07:37:52;32.03;;;13.70;;
23228;SDS011;11783;50.350;6.576;2022-12-10T07:40:18;29.45;;;14.95;;
23228;SDS011;11783;50.350;6.576;2022-12-10T07:42:43;35.15;;;17.13;;
23228;SDS011;11783;50.350;6.576;2022-12-10T07:45:08;31.02;;;15.88;;
23228;SDS011;11783;50.350;6.576;2022-12-10T07:47:35;27.50;;;15.30;;
23228;SDS011;11783;50.350;6.576;2022-12-10T07:50:02;30.70;;;15.20;;
23228;SDS011;11783;50.350;6.576;2022-12-10T07:52:27;28.92;;;14.80;;
23228;SDS011;11783;50.350;6.576;2022-12-10T07:54:53;31.77;;;14.38;;
23228;SDS011;11783;50.350;6.576;2022-12-10T07:57:18;29.48;;;14.30;;
23228;SDS011;11783;50.350;6.576;2022-12-10T07:59:43;33.85;;;15.90;;
23228;SDS011;11783;50.350;6.576;2022-12-10T08:02:09;31.45;;;14.77;;
23228;SDS011;11783;50.350;6.576;2022-12-10T08:04:34;31.45;;;15.27;;
23228;SDS011;11783;50.350;6.576;2022-12-10T08:06:59;32.20;;;15.93;;
23228;SDS011;11783;50.350;6.576;2022-12-10T08:09:25;35.33;;;17.25;;
23228;SDS011;11783;50.350;6.576;2022-12-10T08:11:50;34.75;;;16.63;;
23228;SDS011;11783;50.350;6.576;2022-12-10T08:14:17;28.90;;;14.68;;
23228;SDS011;11783;50.350;6.576;2022-12-10T08:16:42;30.20;;;16.10;;
23228;SDS011;11783;50.350;6.576;2022-12-10T08:19:08;29.05;;;15.23;;
23228;SDS011;11783;50.350;6.576;2022-12-10T08:21:33;36.53;;;17.42;;
23228;SDS011;11783;50.350;6.576;2022-12-10T08:23:59;33.80;;;15.90;;
23228;SDS011;11783;50.350;6.576;2022-12-10T08:26:26;31.02;;;15.15;;
23228;SDS011;11783;50.350;6.576;2022-12-10T08:28:53;25.15;;;13.50;;
23228;SDS011;11783;50.350;6.576;2022-12-10T08:31:20;28.77;;;13.65;;
23228;SDS011;11783;50.350;6.576;2022-12-10T08:33:46;30.35;;;15.60;;
23228;SDS011;11783;50.350;6.576;2022-12-10T08:36:12;32.80;;;14.30;;
23228;SDS011;11783;50.350;6.576;2022-12-10T08:38:39;27.48;;;14.10;;
23228;SDS011;11783;50.350;6.576;2022-12-10T08:41:09;29.40;;;14.77;;
23228;SDS011;11783;50.350;6.576;2022-12-10T08:43:45;26.92;;;12.95;;
23228;SDS011;11783;50.350;6.576;2022-12-10T08:46:11;31.38;;;14.55;;
23228;SDS011;11783;50.350;6.576;2022-12-10T08:48:37;30.10;;;15.57;;
23228;SDS011;11783;50.350;6.576;2022-12-10T08:51:03;30.85;;;14.65;;
23228;SDS011;11783;50.350;6.576;2022-12-10T08:53:30;33.72;;;16.63;;
23228;SDS011;11783;50.350;6.576;2022-12-10T08:55:56;32.05;;;14.35;;
23228;SDS011;11783;50.350;6.576;2022-12-10T08:58:21;26.10;;;13.15;;
23228;SDS011;11783;50.350;6.576;2022-12-10T09:00:47;28.85;;;13.88;;
23228;SDS011;11783;50.350;6.576;2022-12-10T09:03:13;30.10;;;14.43;;
23228;SDS011;11783;50.350;6.576;2022-12-10T09:05:39;29.00;;;13.50;;
23228;SDS011;11783;50.350;6.576;2022-12-10T09:08:05;27.98;;;14.90;;
23228;SDS011;11783;50.350;6.576;2022-12-10T09:10:30;29.02;;;15.02;;
23228;SDS011;11783;50.350;6.576;2022-12-10T09:12:56;27.58;;;14.18;;
23228;SDS011;11783;50.350;6.576;2022-12-10T09:15:21;32.75;;;15.13;;
23228;SDS011;11783;50.350;6.576;2022-12-10T09:17:46;31.05;;;14.85;;
23228;SDS011;11783;50.350;6.576;2022-12-10T09:20:12;34.63;;;15.52;;
23228;SDS011;11783;50.350;6.576;2022-12-10T09:22:37;28.63;;;15.00;;
23228;SDS011;11783;50.350;6.576;2022-12-10T09:25:04;28.85;;;14.45;;
23228;SDS011;11783;50.350;6.576;2022-12-10T09:27:31;26.92;;;13.40;;
23228;SDS011;11783;50.350;6.576;2022-12-10T09:29:56;30.52;;;15.00;;
23228;SDS011;11783;50.350;6.576;2022-12-10T09:32:22;30.30;;;14.65;;
23228;SDS011;11783;50.350;6.576;2022-12-10T09:34:50;31.52;;;15.02;;
23228;SDS011;11783;50.350;6.576;2022-12-10T09:37:16;34.10;;;16.73;;
23228;SDS011;11783;50.350;6.576;2022-12-10T09:39:41;29.58;;;15.38;;
23228;SDS011;11783;50.350;6.576;2022-12-10T09:45:18;31.45;;;14.82;;
23228;SDS011;11783;50.350;6.576;2022-12-10T09:51:05;29.13;;;16.10;;
23228;SDS011;11783;50.350;6.576;2022-12-10T09:53:36;33.70;;;16.45;;
23228;SDS011;11783;50.350;6.576;2022-12-10T09:56:03;33.53;;;17.02;;
23228;SDS011;11783;50.350;6.576;2022-12-10T09:58:28;34.05;;;17.73;;
23228;SDS011;11783;50.350;6.576;2022-12-10T10:00:55;34.40;;;18.05;;
23228;SDS011;11783;50.350;6.576;2022-12-10T10:03:24;35.55;;;18.00;;
23228;SDS011;11783;50.350;6.576;2022-12-10T10:05:50;37.40;;;18.45;;
23228;SDS011;11783;50.350;6.576;2022-12-10T10:08:28;39.53;;;20.02;;
23228;SDS011;11783;50.350;6.576;2022-12-10T10:10:54;41.88;;;20.95;;
23228;SDS011;11783;50.350;6.576;2022-12-10T10:19:04;35.58;;;18.42;;
23228;SDS011;11783;50.350;6.576;2022-12-10T10:21:38;37.75;;;19.67;;
23228;SDS011;11783;50.350;6.576;2022-12-10T10:24:07;36.08;;;19.17;;
23228;SDS011;11783;50.350;6.576;2022-12-10T10:26:37;33.53;;;19.00;;
23228;SDS011;11783;50.350;6.576;2022-12-10T10:29:08;36.10;;;18.98;;
23228;SDS011;11783;50.350;6.576;2022-12-10T10:31:39;35.63;;;18.33;;
23228;SDS011;11783;50.350;6.576;2022-12-10T10:34:20;28.88;;;15.27;;
23228;SDS011;11783;50.350;6.576;2022-12-10T10:36:58;43.28;;;21.13;;
23228;SDS011;11783;50.350;6.576;2022-12-10T10:39:29;29.63;;;16.67;;
23228;SDS011;11783;50.350;6.576;2022-12-10T10:41:56;32.75;;;17.52;;
23228;SDS011;11783;50.350;6.576;2022-12-10T10:44:23;34.47;;;17.10;;
23228;SDS011;11783;50.350;6.576;2022-12-10T10:46:53;34.28;;;17.60;;
23228;SDS011;11783;50.350;6.576;2022-12-10T10:49:24;33.72;;;16.77;;
23228;SDS011;11783;50.350;6.576;2022-12-10T10:51:51;35.42;;;17.95;;
23228;SDS011;11783;50.350;6.576;2022-12-10T10:54:38;38.88;;;18.50;;
23228;SDS011;11783;50.350;6.576;2022-12-10T10:57:28;32.95;;;17.13;;
23228;SDS011;11783;50.350;6.576;2022-12-10T11:00:06;34.30;;;17.33;;
23228;SDS011;11783;50.350;6.576;2022-12-10T11:02:42;31.73;;;15.85;;
23228;SDS011;11783;50.350;6.576;2022-12-10T11:05:14;32.25;;;16.75;;
23228;SDS011;11783;50.350;6.576;2022-12-10T11:07:44;33.72;;;16.58;;
23228;SDS011;11783;50.350;6.576;2022-12-10T11:10:18;26.05;;;14.68;;
23228;SDS011;11783;50.350;6.576;2022-12-10T11:12:55;30.27;;;15.00;;
23228;SDS011;11783;50.350;6.576;2022-12-10T11:15:39;30.70;;;14.65;;
23228;SDS011;11783;50.350;6.576;2022-12-10T11:23:31;32.35;;;15.27;;
23228;SDS011;11783;50.350;6.576;2022-12-10T11:34:16;36.33;;;17.00;;
23228;SDS011;11783;50.350;6.576;2022-12-10T11:36:59;33.45;;;17.02;;
23228;SDS011;11783;50.350;6.576;2022-12-10T11:42:28;26.67;;;14.55;;
23228;SDS011;11783;50.350;6.576;2022-12-10T11:47:58;31.92;;;15.98;;
23228;SDS011;11783;50.350;6.576;2022-12-10T11:50:48;30.27;;;16.27;;
23228;SDS011;11783;50.350;6.576;2022-12-10T11:56:07;32.38;;;16.65;;
23228;SDS011;11783;50.350;6.576;2022-12-10T12:01:31;32.92;;;17.30;;
23228;SDS011;11783;50.350;6.576;2022-12-10T12:09:34;27.77;;;13.65;;
23228;SDS011;11783;50.350;6.576;2022-12-10T12:12:17;24.45;;;13.48;;
23228;SDS011;11783;50.350;6.576;2022-12-10T12:15:00;24.73;;;13.73;;
23228;SDS011;11783;50.350;6.576;2022-12-10T12:17:35;25.85;;;13.85;;
23228;SDS011;11783;50.350;6.576;2022-12-10T12:23:00;27.35;;;13.80;;
23228;SDS011;11783;50.350;6.576;2022-12-10T12:25:49;25.67;;;12.65;;
23228;SDS011;11783;50.350;6.576;2022-12-10T12:28:34;27.33;;;13.82;;
23228;SDS011;11783;50.350;6.576;2022-12-10T12:31:08;25.80;;;14.48;;
23228;SDS011;11783;50.350;6.576;2022-12-10T12:33:47;24.80;;;14.07;;
23228;SDS011;11783;50.350;6.576;2022-12-10T12:36:22;27.70;;;14.85;;
23228;SDS011;11783;50.350;6.576;2022-12-10T12:44:11;25.90;;;14.45;;
23228;SDS011;11783;50.350;6.576;2022-12-10T12:46:58;25.38;;;13.82;;
23228;SDS011;11783;50.350;6.576;2022-12-10T12:49:35;27.08;;;13.93;;
23228;SDS011;11783;50.350;6.576;2022-12-10T12:54:52;25.63;;;13.75;;
23228;SDS011;11783;50.350;6.576;2022-12-10T12:57:44;26.65;;;13.98;;
23228;SDS011;11783;50.350;6.576;2022-12-10T13:00:16;25.42;;;13.70;;
23228;SDS011;11783;50.350;6.576;2022-12-10T13:02:45;23.08;;;13.40;;
23228;SDS011;11783;50.350;6.576;2022-12-10T13:05:31;25.33;;;14.43;;
23228;SDS011;11783;50.350;6.576;2022-12-10T13:10:51;26.15;;;13.30;;
23228;SDS011;11783;50.350;6.576;2022-12-10T13:15:48;21.08;;;12.88;;
23228;SDS011;11783;50.350;6.576;2022-12-10T13:20:46;22.40;;;12.45;;
23228;SDS011;11783;50.350;6.576;2022-12-10T13:25:59;23.42;;;13.38;;
23228;SDS011;11783;50.350;6.576;2022-12-10T13:36:29;22.48;;;13.25;;
23228;SDS011;11783;50.350;6.576;2022-12-10T13:41:32;26.52;;;13.88;;
23228;SDS011;11783;50.350;6.576;2022-12-10T13:49:42;22.75;;;12.70;;
23228;SDS011;11783;50.350;6.576;2022-12-10T13:52:15;23.38;;;11.88;;
23228;SDS011;11783;50.350;6.576;2022-12-10T14:06:04;18.70;;;7.07;;
23228;SDS011;11783;50.350;6.576;2022-12-10T14:08:38;14.30;;;7.20;;
23228;SDS011;11783;50.350;6.576;2022-12-10T14:11:16;12.32;;;5.90;;
23228;SDS011;11783;50.350;6.576;2022-12-10T14:13:46;11.27;;;5.88;;
23228;SDS011;11783;50.350;6.576;2022-12-10T14:16:18;11.45;;;5.95;;
23228;SDS011;11783;50.350;6.576;2022-12-10T14:18:51;9.27;;;5.80;;
23228;SDS011;11783;50.350;6.576;2022-12-10T14:21:20;13.82;;;6.60;;
23228;SDS011;11783;50.350;6.576;2022-12-10T14:23:46;13.15;;;6.43;;
23228;SDS011;11783;50.350;6.576;2022-12-10T14:26:14;12.63;;;6.53;;
23228;SDS011;11783;50.350;6.576;2022-12-10T14:28:54;12.15;;;6.28;;
23228;SDS011;11783;50.350;6.576;2022-12-10T14:31:26;12.23;;;5.97;;
23228;SDS011;11783;50.350;6.576;2022-12-10T14:34:07;15.05;;;6.10;;
23228;SDS011;11783;50.350;6.576;2022-12-10T14:36:39;12.50;;;6.32;;
23228;SDS011;11783;50.350;6.576;2022-12-10T14:39:14;14.32;;;6.82;;
23228;SDS011;11783;50.350;6.576;2022-12-10T14:41:46;12.48;;;6.38;;
23228;SDS011;11783;50.350;6.576;2022-12-10T14:44:16;15.55;;;7.85;;
23228;SDS011;11783;50.350;6.576;2022-12-10T14:46:43;14.88;;;7.30;;
23228;SDS011;11783;50.350;6.576;2022-12-10T14:49:13;12.20;;;6.38;;
23228;SDS011;11783;50.350;6.576;2022-12-10T14:51:40;13.65;;;6.20;;
23228;SDS011;11783;50.350;6.576;2022-12-10T14:54:22;17.92;;;6.47;;
23228;SDS011;11783;50.350;6.576;2022-12-10T14:56:53;11.00;;;6.07;;
23228;SDS011;11783;50.350;6.576;2022-12-10T14:59:25;11.23;;;5.93;;
23228;SDS011;11783;50.350;6.576;2022-12-10T15:02:05;12.95;;;5.53;;
23228;SDS011;11783;50.350;6.576;2022-12-10T15:04:43;11.40;;;5.32;;
23228;SDS011;11783;50.350;6.576;2022-12-10T15:07:13;13.10;;;5.88;;
23228;SDS011;11783;50.350;6.576;2022-12-10T15:09:42;10.45;;;5.93;;
23228;SDS011;11783;50.350;6.576;2022-12-10T15:12:15;11.60;;;5.53;;
23228;SDS011;11783;50.350;6.576;2022-12-10T15:14:47;11.65;;;6.10;;
23228;SDS011;11783;50.350;6.576;2022-12-10T15:17:32;12.68;;;6.65;;
23228;SDS011;11783;50.350;6.576;2022-12-10T15:20:26;12.90;;;7.13;;
23228;SDS011;11783;50.350;6.576;2022-12-10T15:23:46;14.60;;;6.95;;
23228;SDS011;11783;50.350;6.576;2022-12-10T15:28:27;13.05;;;6.38;;
23228;SDS011;11783;50.350;6.576;2022-12-10T15:30:55;12.95;;;5.97;;
23228;SDS011;11783;50.350;6.576;2022-12-10T15:33:34;9.93;;;5.32;;
23228;SDS011;11783;50.350;6.576;2022-12-10T15:36:19;10.10;;;5.17;;
23228;SDS011;11783;50.350;6.576;2022-12-10T15:38:46;9.38;;;5.03;;
23228;SDS011;11783;50.350;6.576;2022-12-10T15:44:06;11.63;;;5.38;;
23228;SDS011;11783;50.350;6.576;2022-12-10T15:46:50;9.60;;;5.43;;
23228;SDS011;11783;50.350;6.576;2022-12-10T15:49:26;15.60;;;6.85;;
23228;SDS011;11783;50.350;6.576;2022-12-10T15:51:52;11.73;;;6.18;;
23228;SDS011;11783;50.350;6.576;2022-12-10T15:56:48;17.73;;;8.45;;
23228;SDS011;11783;50.350;6.576;2022-12-10T15:59:13;18.25;;;9.13;;
23228;SDS011;11783;50.350;6.576;2022-12-10T16:01:45;22.75;;;10.80;;
23228;SDS011;11783;50.350;6.576;2022-12-10T16:04:16;18.80;;;9.55;;
23228;SDS011;11783;50.350;6.576;2022-12-10T16:06:41;20.55;;;10.52;;
23228;SDS011;11783;50.350;6.576;2022-12-10T16:09:08;28.98;;;11.80;;
23228;SDS011;11783;50.350;6.576;2022-12-10T16:11:35;24.48;;;12.23;;
23228;SDS011;11783;50.350;6.576;2022-12-10T16:14:10;24.80;;;12.45;;
23228;SDS011;11783;50.350;6.576;2022-12-10T16:16:38;24.42;;;12.57;;
23228;SDS011;11783;50.350;6.576;2022-12-10T16:19:08;31.67;;;14.50;;
23228;SDS011;11783;50.350;6.576;2022-12-10T16:21:38;29.77;;;14.35;;
23228;SDS011;11783;50.350;6.576;2022-12-10T16:24:04;31.88;;;15.00;;
23228;SDS011;11783;50.350;6.576;2022-12-10T16:26:33;31.63;;;15.60;;
23228;SDS011;11783;50.350;6.576;2022-12-10T16:28:58;35.38;;;16.00;;
23228;SDS011;11783;50.350;6.576;2022-12-10T16:31:24;28.95;;;14.40;;
23228;SDS011;11783;50.350;6.576;2022-12-10T16:33:50;32.90;;;15.80;;
23228;SDS011;11783;50.350;6.576;2022-12-10T16:36:17;31.17;;;15.75;;